createdAt,value
2018-11-06T00:00:16.847Z,80.50
2018-11-06T00:02:21.830Z,80.46
2018-11-06T00:04:31.761Z,80.51
2018-11-06T00:06:36.461Z,80.91
2018-11-06T00:08:41.349Z,81.06
2018-11-06T00:10:46.046Z,81.27
2018-11-06T00:12:50.793Z,81.48
2018-11-06T00:14:59.314Z,81.44
2018-11-06T00:17:04.258Z,81.37
2018-11-06T00:19:09.017Z,81.61
2018-11-06T00:21:13.742Z,81.48
2018-11-06T00:23:18.533Z,81.61
2018-11-06T00:25:23.303Z,81.80
2018-11-06T00:27:28.348Z,81.74
2018-11-06T00:29:33.320Z,81.80
2018-11-06T00:31:38.079Z,81.75
2018-11-06T00:33:42.793Z,81.85
2018-11-06T00:35:47.568Z,81.89
2018-11-06T00:37:52.351Z,82.17
2018-11-06T00:39:57.040Z,82.29
2018-11-06T00:42:01.870Z,82.04
2018-11-06T00:44:06.800Z,82.25
2018-11-06T00:46:11.612Z,82.35
2018-11-06T00:48:16.560Z,82.37
2018-11-06T00:50:21.279Z,82.67
2018-11-06T00:52:25.995Z,82.71
2018-11-06T00:54:30.933Z,82.83
2018-11-06T00:56:35.677Z,82.87
2018-11-06T00:58:40.444Z,83.03
2018-11-06T01:00:45.177Z,83.03
2018-11-06T01:02:50.160Z,82.93
2018-11-06T01:04:54.889Z,83.03
2018-11-06T01:06:59.618Z,83.03
2018-11-06T01:09:05.456Z,83.03
2018-11-06T01:11:10.188Z,82.86
2018-11-06T01:13:14.938Z,82.79
2018-11-06T01:15:19.705Z,82.77
2018-11-06T01:17:24.458Z,82.92
2018-11-06T01:19:29.167Z,83.10
2018-11-06T01:21:33.888Z,83.18
2018-11-06T01:23:38.730Z,83.20
2018-11-06T01:25:43.563Z,83.40
2018-11-06T01:27:48.298Z,83.24
2018-11-06T01:29:53.131Z,83.29
2018-11-06T01:31:57.909Z,83.33
2018-11-06T01:34:02.768Z,83.12
2018-11-06T01:36:07.645Z,83.14
2018-11-06T01:38:12.503Z,83.33
2018-11-06T01:40:18.384Z,82.98
2018-11-06T01:42:23.435Z,82.90
2018-11-06T01:44:28.585Z,82.98
2018-11-06T01:46:33.680Z,82.91
2018-11-06T01:48:38.823Z,82.96
2018-11-06T01:50:43.779Z,82.84
2018-11-06T01:52:48.942Z,82.61
2018-11-06T01:54:53.674Z,82.68
2018-11-06T01:56:58.390Z,82.62
2018-11-06T01:59:03.090Z,82.64
2018-11-06T02:01:07.947Z,82.69
2018-11-06T02:03:12.674Z,82.91
2018-11-06T02:05:18.278Z,82.86
2018-11-06T02:07:23.183Z,82.77
2018-11-06T02:09:28.123Z,82.88
2018-11-06T02:11:32.880Z,83.05
2018-11-06T02:13:37.692Z,83.03
2018-11-06T02:15:42.386Z,83.29
2018-11-06T02:17:47.185Z,83.39
2018-11-06T02:19:52.457Z,83.40
2018-11-06T02:21:57.359Z,83.55
2018-11-06T02:24:02.616Z,83.47
2018-11-06T02:26:07.433Z,83.33
2018-11-06T02:28:12.138Z,83.27
2018-11-06T02:30:17.864Z,83.20
2018-11-06T02:32:22.826Z,83.22
2018-11-06T02:34:27.721Z,83.08
2018-11-06T02:36:32.419Z,82.91
2018-11-06T02:38:37.154Z,83.15
2018-11-06T02:40:41.938Z,83.12
2018-11-06T02:42:46.642Z,83.04
2018-11-06T02:44:51.539Z,82.94
2018-11-06T02:46:56.234Z,83.18
2018-11-06T02:49:01.010Z,82.96
2018-11-06T02:51:06.105Z,83.02
2018-11-06T02:53:10.796Z,82.96
2018-11-06T02:55:15.538Z,82.89
2018-11-06T02:57:20.306Z,82.95
2018-11-06T02:59:25.230Z,82.74
2018-11-06T03:01:29.931Z,82.98
2018-11-06T03:03:41.925Z,82.68
2018-11-06T03:05:46.612Z,82.71
2018-11-06T03:07:51.438Z,82.66
2018-11-06T03:09:56.325Z,82.44
2018-11-06T03:12:01.030Z,82.31
2018-11-06T03:14:05.839Z,82.05
2018-11-06T03:16:10.564Z,82.18
2018-11-06T03:18:15.296Z,82.18
2018-11-06T03:20:19.975Z,82.08
2018-11-06T03:22:24.658Z,81.91
2018-11-06T03:24:29.445Z,81.94
2018-11-06T03:26:34.286Z,81.96
2018-11-06T03:28:39.082Z,81.84
2018-11-06T03:30:43.888Z,81.63
2018-11-06T03:32:48.739Z,81.80
2018-11-06T03:34:53.591Z,81.43
2018-11-06T03:36:58.324Z,80.87
2018-11-06T03:39:03.128Z,80.76
2018-11-06T03:41:07.952Z,80.55
2018-11-06T03:43:12.699Z,79.73
2018-11-06T03:45:17.406Z,79.85
2018-11-06T03:47:22.235Z,79.94
2018-11-06T03:49:26.961Z,79.84
2018-11-06T03:51:31.702Z,80.01
2018-11-06T03:53:36.334Z,80.04
2018-11-06T03:55:41.075Z,80.04
2018-11-06T03:57:45.733Z,79.88
2018-11-06T03:59:50.448Z,79.88
2018-11-06T04:01:55.216Z,79.85
2018-11-06T04:03:59.975Z,79.87
2018-11-06T04:06:04.687Z,80.02
2018-11-06T04:08:09.532Z,79.62
2018-11-06T04:10:14.578Z,79.45
2018-11-06T04:12:19.263Z,79.53
2018-11-06T04:14:23.991Z,79.41
2018-11-06T04:16:28.783Z,79.49
2018-11-06T04:18:33.530Z,79.49
2018-11-06T04:20:38.246Z,79.42
2018-11-06T04:22:43.147Z,79.54
2018-11-06T04:24:47.946Z,79.85
2018-11-06T04:26:52.751Z,79.92
2018-11-06T04:28:57.442Z,80.16
2018-11-06T04:31:02.171Z,80.36
2018-11-06T04:33:06.900Z,80.24
2018-11-06T04:35:12.164Z,80.12
2018-11-06T04:37:17.001Z,80.19
2018-11-06T04:39:21.840Z,80.07
2018-11-06T04:41:26.954Z,79.81
2018-11-06T04:43:31.768Z,79.73
2018-11-06T04:45:36.489Z,79.27
2018-11-06T04:47:41.289Z,79.17
2018-11-06T04:49:46.246Z,78.72
2018-11-06T04:51:51.128Z,78.48
2018-11-06T04:54:00.058Z,78.54
2018-11-06T04:56:05.353Z,78.48
2018-11-06T04:58:10.184Z,78.37
2018-11-06T05:00:15.750Z,78.25
2018-11-06T05:02:20.403Z,78.10
2018-11-06T05:04:25.184Z,77.90
2018-11-06T05:06:29.930Z,77.92
2018-11-06T05:08:34.684Z,77.26
2018-11-06T05:10:39.484Z,76.89
2018-11-06T05:12:44.482Z,76.94
2018-11-06T05:14:49.241Z,76.81
2018-11-06T05:16:54.141Z,76.89
2018-11-06T05:18:58.839Z,76.99
2018-11-06T05:21:03.685Z,77.18
2018-11-06T05:23:08.525Z,77.67
2018-11-06T05:25:13.300Z,77.46
2018-11-06T05:27:18.290Z,77.90
2018-11-06T05:29:23.019Z,77.96
2018-11-06T05:31:27.729Z,78.42
2018-11-06T05:33:32.605Z,78.51
2018-11-06T05:35:37.568Z,78.86
2018-11-06T05:37:42.310Z,79.04
2018-11-06T05:40:04.449Z,78.72
2018-11-06T05:42:09.175Z,78.96
2018-11-06T05:44:18.012Z,79.47
2018-11-06T05:46:22.775Z,79.13
2018-11-06T05:48:27.945Z,78.97
2018-11-06T05:50:32.759Z,79.42
2018-11-06T05:52:37.490Z,79.40
2018-11-06T05:54:42.211Z,79.60
2018-11-06T05:56:46.941Z,79.44
2018-11-06T05:58:51.761Z,79.71
2018-11-06T06:00:56.543Z,79.79
2018-11-06T06:03:01.270Z,79.80
2018-11-06T06:05:07.371Z,80.00
2018-11-06T06:07:12.184Z,80.35
2018-11-06T06:09:16.827Z,80.26
2018-11-06T06:11:21.625Z,80.42
2018-11-06T06:13:26.326Z,80.62
2018-11-06T06:15:31.269Z,80.55
2018-11-06T06:17:36.107Z,80.62
2018-11-06T06:19:40.923Z,80.60
2018-11-06T06:21:45.687Z,80.65
2018-11-06T06:23:50.339Z,80.68
2018-11-06T06:25:55.003Z,80.53
2018-11-06T06:27:59.684Z,80.86
2018-11-06T06:30:05.317Z,80.79
2018-11-06T06:32:10.192Z,80.84
2018-11-06T06:34:15.119Z,81.02
2018-11-06T06:36:19.981Z,81.06
2018-11-06T06:38:24.763Z,81.26
2018-11-06T06:40:29.654Z,81.34
2018-11-06T06:42:34.339Z,81.29
2018-11-06T06:44:39.038Z,81.56
2018-11-06T06:46:43.769Z,81.65
2018-11-06T06:48:48.543Z,81.46
2018-11-06T06:50:53.474Z,81.48
2018-11-06T06:52:58.206Z,81.73
2018-11-06T06:55:03.046Z,81.82
2018-11-06T06:57:07.931Z,81.88
2018-11-06T06:59:12.716Z,81.86
2018-11-06T07:01:17.449Z,81.78
2018-11-06T07:03:22.184Z,81.85
2018-11-06T07:05:26.920Z,82.11
2018-11-06T07:07:31.650Z,82.00
2018-11-06T07:09:36.872Z,82.02
2018-11-06T07:11:41.620Z,81.82
2018-11-06T07:13:46.322Z,82.06
2018-11-06T07:15:51.023Z,81.84
2018-11-06T07:17:55.790Z,81.99
2018-11-06T07:20:00.770Z,81.95
2018-11-06T07:22:05.720Z,81.94
2018-11-06T07:24:10.648Z,82.03
2018-11-06T07:26:15.335Z,81.78
2018-11-06T07:28:20.798Z,81.85
2018-11-06T07:30:25.492Z,81.51
2018-11-06T07:32:30.203Z,81.50
2018-11-06T07:34:34.906Z,81.40
2018-11-06T07:36:39.527Z,81.13
2018-11-06T07:38:44.242Z,80.86
2018-11-06T07:40:48.947Z,80.67
2018-11-06T07:42:53.688Z,80.42
2018-11-06T07:44:58.425Z,80.20
2018-11-06T07:47:03.127Z,80.13
2018-11-06T07:49:08.244Z,79.73
2018-11-06T07:51:12.998Z,79.66
2018-11-06T07:53:17.774Z,79.42
2018-11-06T07:55:22.434Z,79.24
2018-11-06T07:57:27.240Z,78.73
2018-11-06T07:59:32.077Z,78.36
2018-11-06T08:01:40.731Z,77.90
2018-11-06T08:03:45.665Z,77.58
2018-11-06T08:05:50.568Z,77.07
2018-11-06T08:07:55.373Z,77.04
2018-11-06T08:10:04.470Z,76.65
2018-11-06T08:12:09.313Z,76.14
2018-11-06T08:14:14.055Z,75.40
2018-11-06T08:16:18.743Z,75.41
2018-11-06T08:18:23.487Z,74.99
2018-11-06T08:20:28.175Z,74.75
2018-11-06T08:22:32.963Z,74.80
2018-11-06T08:24:37.628Z,74.85
2018-11-06T08:26:42.354Z,74.50
2018-11-06T08:28:47.226Z,74.11
2018-11-06T08:30:52.274Z,74.12
2018-11-06T08:32:56.826Z,73.21
2018-11-06T08:35:01.578Z,73.52
2018-11-06T08:37:06.358Z,73.40
2018-11-06T08:39:11.835Z,73.25
2018-11-06T08:41:16.534Z,73.04
2018-11-06T08:43:21.309Z,72.40
2018-11-06T08:45:26.166Z,72.15
2018-11-06T08:47:30.832Z,71.72
2018-11-06T08:49:35.660Z,71.88
2018-11-06T08:51:40.385Z,72.00
2018-11-06T08:53:46.303Z,71.87
2018-11-06T08:55:51.342Z,71.91
2018-11-06T08:57:56.120Z,71.77
2018-11-06T09:00:00.928Z,71.49
2018-11-06T09:02:05.864Z,71.40
2018-11-06T09:04:10.545Z,71.33
2018-11-06T09:06:15.242Z,71.21
2018-11-06T09:08:19.971Z,70.89
2018-11-06T09:10:24.672Z,70.94
2018-11-06T09:12:29.468Z,70.96
2018-11-06T09:14:34.229Z,70.37
2018-11-06T09:16:38.933Z,70.08
2018-11-06T09:18:43.635Z,69.65
2018-11-06T09:20:48.314Z,69.40
2018-11-06T09:22:53.068Z,68.87
2018-11-06T09:24:57.912Z,67.78
2018-11-06T09:27:02.806Z,68.05
2018-11-06T09:29:07.906Z,67.48
2018-11-06T09:31:12.602Z,66.49
2018-11-06T09:33:17.423Z,66.01
2018-11-06T09:35:22.082Z,65.55
2018-11-06T09:37:26.791Z,65.25
2018-11-06T09:39:31.526Z,64.86
2018-11-06T09:41:36.287Z,64.89
2018-11-06T09:43:41.048Z,64.69
2018-11-06T09:45:45.826Z,63.70
2018-11-06T09:47:50.693Z,63.97
2018-11-06T09:49:55.518Z,63.74
2018-11-06T09:52:00.281Z,63.79
2018-11-06T09:54:05.370Z,63.40
2018-11-06T09:56:10.315Z,63.57
2018-11-06T09:58:15.203Z,63.38
2018-11-06T10:00:20.880Z,63.30
2018-11-06T10:02:25.799Z,62.80
2018-11-06T10:04:30.694Z,63.12
2018-11-06T10:06:35.556Z,63.02
2018-11-06T10:08:40.542Z,63.31
2018-11-06T10:10:47.181Z,63.06
2018-11-06T10:12:52.023Z,62.94
2018-11-06T10:14:56.727Z,62.71
2018-11-06T10:17:01.498Z,62.71
2018-11-06T10:19:06.314Z,62.28
2018-11-06T10:21:11.292Z,62.46
2018-11-06T10:23:16.274Z,61.38
2018-11-06T10:25:21.001Z,61.19
2018-11-06T10:27:25.909Z,61.24
2018-11-06T10:29:30.788Z,60.97
2018-11-06T10:31:36.147Z,60.54
2018-11-06T10:33:41.136Z,60.01
2018-11-06T10:35:46.042Z,60.29
2018-11-06T10:37:50.864Z,60.16
2018-11-06T10:39:55.752Z,60.26
2018-11-06T10:42:00.541Z,59.03
2018-11-06T10:44:05.667Z,58.90
2018-11-06T10:46:10.734Z,58.90
2018-11-06T10:48:15.843Z,58.71
2018-11-06T10:50:20.711Z,58.65
2018-11-06T10:52:25.649Z,58.62
2018-11-06T10:54:30.513Z,58.52
2018-11-06T10:56:35.270Z,58.36
2018-11-06T10:58:40.129Z,56.90
2018-11-06T11:02:53.858Z,57.02
2018-11-06T11:04:58.862Z,56.60
2018-11-06T11:07:03.798Z,56.41
2018-11-06T11:09:10.505Z,56.58
2018-11-06T11:11:15.166Z,56.01
2018-11-06T11:13:20.043Z,56.19
2018-11-06T11:15:24.827Z,55.33
2018-11-06T11:17:29.502Z,55.03
2018-11-06T11:19:34.402Z,55.55
2018-11-06T11:21:39.322Z,55.02
2018-11-06T11:23:44.252Z,55.53
2018-11-06T11:25:49.019Z,54.80
2018-11-06T11:27:53.738Z,54.97
2018-11-06T11:29:58.540Z,54.91
2018-11-06T11:32:03.494Z,54.55
2018-11-06T11:34:08.735Z,55.05
2018-11-06T11:36:13.456Z,54.85
2018-11-06T11:38:18.742Z,54.91
2018-11-06T11:40:24.036Z,54.05
2018-11-06T11:42:28.882Z,54.20
2018-11-06T11:44:36.459Z,54.40
2018-11-06T11:46:41.308Z,54.01
2018-11-06T11:48:46.533Z,53.32
2018-11-06T11:50:51.941Z,52.52
2018-11-06T11:52:57.605Z,53.07
2018-11-06T11:55:02.438Z,52.88
2018-11-06T11:57:07.353Z,52.88
2018-11-06T11:59:12.478Z,52.91
2018-11-06T12:01:17.277Z,52.56
2018-11-06T12:03:22.469Z,52.11
2018-11-06T12:05:28.139Z,51.46
2018-11-06T12:07:33.233Z,52.00
2018-11-06T12:09:38.482Z,51.47
2018-11-06T12:11:43.686Z,51.61
2018-11-06T12:13:48.744Z,51.40
2018-11-06T12:15:53.477Z,50.98
2018-11-06T12:17:58.299Z,51.78
2018-11-06T12:20:04.047Z,51.95
2018-11-06T12:22:08.910Z,51.29
2018-11-06T12:24:14.151Z,51.58
2018-11-06T12:26:18.929Z,50.70
2018-11-06T12:28:23.843Z,50.50
2018-11-06T12:30:29.252Z,49.61
2018-11-06T12:32:34.109Z,50.26
2018-11-06T12:34:38.858Z,49.97
2018-11-06T12:36:43.739Z,50.66
2018-11-06T12:38:48.605Z,49.83
2018-11-06T12:40:53.786Z,50.23
2018-11-06T12:42:58.856Z,50.42
2018-11-06T12:45:03.792Z,50.41
2018-11-06T12:47:08.741Z,50.13
2018-11-06T12:49:13.678Z,49.63
2018-11-06T12:51:18.590Z,49.88
2018-11-06T12:53:23.589Z,49.44
2018-11-06T12:55:28.370Z,49.66
2018-11-06T12:57:33.162Z,49.39
2018-11-06T12:59:38.169Z,49.66
2018-11-06T13:01:43.193Z,48.86
2018-11-06T13:03:48.085Z,48.24
2018-11-06T13:05:53.182Z,48.18
2018-11-06T13:07:57.983Z,47.85
2018-11-06T13:10:03.087Z,47.44
2018-11-06T13:12:08.383Z,46.77
2018-11-06T13:14:13.495Z,47.03
2018-11-06T13:16:18.606Z,46.99
2018-11-06T13:18:23.620Z,46.76
2018-11-06T13:20:29.092Z,46.34
2018-11-06T13:22:34.024Z,46.28
2018-11-06T13:24:38.893Z,47.16
2018-11-06T13:26:43.838Z,46.30
2018-11-06T13:28:48.687Z,46.94
2018-11-06T13:30:54.109Z,46.92
2018-11-06T13:32:59.088Z,47.31
2018-11-06T13:35:04.233Z,47.48
2018-11-06T13:37:09.242Z,47.22
2018-11-06T13:39:15.474Z,47.83
2018-11-06T13:41:20.448Z,47.68
2018-11-06T13:43:25.494Z,47.66
2018-11-06T13:45:30.570Z,47.66
2018-11-06T13:47:36.003Z,47.75
2018-11-06T13:49:41.345Z,48.07
2018-11-06T13:51:46.141Z,47.85
2018-11-06T13:53:50.944Z,48.36
2018-11-06T13:55:57.022Z,48.17
2018-11-06T13:58:02.880Z,48.48
2018-11-06T14:00:13.120Z,48.32
2018-11-06T14:02:21.482Z,48.09
2018-11-06T14:06:57.621Z,48.06
2018-11-06T14:09:11.633Z,48.26
2018-11-06T14:11:18.645Z,48.31
2018-11-06T14:13:30.029Z,48.22
2018-11-06T14:15:37.421Z,48.48
2018-11-06T14:17:42.987Z,48.41
2018-11-06T14:19:53.061Z,48.31
2018-11-06T14:21:58.454Z,48.38
2018-11-06T14:24:03.691Z,48.91
2018-11-06T14:26:10.001Z,49.18
2018-11-06T14:28:15.558Z,49.44
2018-11-06T14:30:22.713Z,49.66
2018-11-06T14:32:28.307Z,49.85
2018-11-06T14:34:33.649Z,50.01
2018-11-06T14:36:38.748Z,50.36
2018-11-06T14:38:43.817Z,50.74
2018-11-06T14:40:48.691Z,50.98
2018-11-06T14:42:54.534Z,51.81
2018-11-06T14:44:59.471Z,51.92
2018-11-06T14:47:04.425Z,52.00
2018-11-06T14:49:09.614Z,51.97
2018-11-06T14:51:14.669Z,52.59
2018-11-06T14:53:19.593Z,52.99
2018-11-06T14:55:24.647Z,53.34
2018-11-06T14:57:31.399Z,53.69
2018-11-06T14:59:38.238Z,53.90
2018-11-06T15:01:43.209Z,53.92
2018-11-06T15:03:50.685Z,54.39
2018-11-06T15:05:55.798Z,54.96
2018-11-06T15:08:01.285Z,55.36
2018-11-06T15:10:08.422Z,55.22
2018-11-06T15:12:13.472Z,55.67
2018-11-06T15:14:18.253Z,55.98
2018-11-06T15:16:25.394Z,56.07
2018-11-06T15:18:31.403Z,56.23
2018-11-06T15:20:36.526Z,56.52
2018-11-06T15:22:42.318Z,56.51
2018-11-06T15:24:48.084Z,57.04
2018-11-06T15:26:53.604Z,57.34
2018-11-06T15:28:58.699Z,57.28
2018-11-06T15:31:03.934Z,57.53
2018-11-06T15:33:08.786Z,58.04
2018-11-06T15:35:14.753Z,58.28
2018-11-06T15:37:19.546Z,58.62
2018-11-06T15:39:24.465Z,58.90
2018-11-06T15:41:29.334Z,58.93
2018-11-06T15:43:34.163Z,59.37
2018-11-06T15:45:38.893Z,59.22
2018-11-06T15:47:44.427Z,59.65
2018-11-06T15:49:49.312Z,60.19
2018-11-06T15:51:54.142Z,60.26
2018-11-06T15:53:58.952Z,60.11
2018-11-06T15:56:03.741Z,60.35
2018-11-06T15:58:08.479Z,60.77
2018-11-06T16:00:20.066Z,60.90
2018-11-06T16:02:24.825Z,60.71
2018-11-06T16:04:29.888Z,60.93
2018-11-06T16:06:35.098Z,61.36
2018-11-06T16:08:39.829Z,61.53
2018-11-06T16:10:46.122Z,61.50
2018-11-06T16:12:52.781Z,61.64
2018-11-06T16:14:57.718Z,62.52
2018-11-06T16:17:03.223Z,62.26
2018-11-06T16:21:21.338Z,63.14
2018-11-06T16:23:26.916Z,62.85
2018-11-06T16:25:32.905Z,63.30
2018-11-06T16:27:38.002Z,63.31
2018-11-06T16:29:43.562Z,63.59
2018-11-06T16:31:49.670Z,63.47
2018-11-06T16:33:54.626Z,63.76
2018-11-06T16:36:02.290Z,63.83
2018-11-06T16:38:07.205Z,64.42
2018-11-06T16:40:12.629Z,64.31
2018-11-06T16:42:17.693Z,64.52
2018-11-06T16:44:22.777Z,64.80
2018-11-06T16:46:27.514Z,64.83
2018-11-06T16:48:32.389Z,65.12
2018-11-06T16:50:37.195Z,64.96
2018-11-06T16:52:42.513Z,65.37
2018-11-06T16:54:47.294Z,65.42
2018-11-06T16:56:52.167Z,65.81
2018-11-06T16:58:57.055Z,65.58
2018-11-06T17:01:02.081Z,65.89
2018-11-06T17:03:06.957Z,66.10
2018-11-06T17:05:12.934Z,66.36
2018-11-06T17:07:17.740Z,66.20
2018-11-06T17:09:22.833Z,66.18
2018-11-06T17:11:27.630Z,66.56
2018-11-06T17:13:34.863Z,66.00
2018-11-06T17:15:40.220Z,66.37
2018-11-06T17:17:45.769Z,66.52
2018-11-06T17:19:50.612Z,66.11
2018-11-06T17:21:58.345Z,65.83
2018-11-06T17:24:03.228Z,66.13
2018-11-06T17:26:09.931Z,65.97
2018-11-06T17:28:15.396Z,66.22
2018-11-06T17:30:20.986Z,66.34
2018-11-06T17:32:26.200Z,66.10
2018-11-06T17:34:32.171Z,66.44
2018-11-06T17:36:37.664Z,66.11
2018-11-06T17:38:42.859Z,65.74
2018-11-06T17:40:47.816Z,65.76
2018-11-06T17:42:53.011Z,66.11
2018-11-06T17:44:58.131Z,66.39
2018-11-06T17:47:03.091Z,65.85
2018-11-06T17:49:08.840Z,66.16
2018-11-06T17:51:14.172Z,66.33
2018-11-06T17:53:19.501Z,66.13
2018-11-06T17:55:25.186Z,66.01
2018-11-06T17:57:30.299Z,65.41
2018-11-06T17:59:35.244Z,65.50
2018-11-06T18:01:40.305Z,65.71
2018-11-06T18:03:45.461Z,65.25
2018-11-06T18:05:51.621Z,65.04
2018-11-06T18:07:57.027Z,64.80
2018-11-06T18:10:03.712Z,65.19
2018-11-06T18:12:09.444Z,64.37
2018-11-06T18:14:15.540Z,63.63
2018-11-06T18:16:21.168Z,63.67
2018-11-06T18:18:27.215Z,63.56
2018-11-06T18:20:32.355Z,63.26
2018-11-06T18:22:38.347Z,63.26
2018-11-06T18:24:43.730Z,63.78
2018-11-06T18:26:49.734Z,63.09
2018-11-06T18:28:54.895Z,63.70
2018-11-06T18:30:59.845Z,64.37
2018-11-06T18:33:04.799Z,64.27
2018-11-06T18:35:11.303Z,64.01
2018-11-06T18:37:16.359Z,63.84
2018-11-06T18:39:22.370Z,64.06
2018-11-06T18:41:28.571Z,64.33
2018-11-06T18:43:36.031Z,64.15
2018-11-06T18:45:41.067Z,63.80
2018-11-06T18:47:46.252Z,64.36
2018-11-06T18:49:52.132Z,64.80
2018-11-06T18:51:57.269Z,64.71
2018-11-06T18:54:02.669Z,64.91
2018-11-06T18:56:07.965Z,65.47
2018-11-06T18:58:12.968Z,65.48
2018-11-06T19:00:20.146Z,65.74
2018-11-06T19:02:25.381Z,65.48
2018-11-06T19:04:30.492Z,65.72
2018-11-06T19:06:35.627Z,65.55
2018-11-06T19:08:41.259Z,66.07
2018-11-06T19:10:46.202Z,65.97
2018-11-06T19:12:51.321Z,66.28
2018-11-06T19:14:56.382Z,66.10
2018-11-06T19:17:01.621Z,66.78
2018-11-06T19:19:07.105Z,67.07
2018-11-06T19:21:12.142Z,67.28
2018-11-06T19:23:17.543Z,67.23
2018-11-06T19:25:23.100Z,67.36
2018-11-06T19:27:28.777Z,67.33
2018-11-06T19:29:33.867Z,68.13
2018-11-06T19:31:39.001Z,67.84
2018-11-06T19:33:44.145Z,68.16
2018-11-06T19:35:52.156Z,67.69
2018-11-06T19:37:58.073Z,67.76
2018-11-06T19:40:04.502Z,67.85
2018-11-06T19:42:18.525Z,67.85
2018-11-06T19:44:28.749Z,67.89
2018-11-06T19:46:47.947Z,67.94
2018-11-06T19:48:54.237Z,67.94
2018-11-06T19:51:00.407Z,68.50
2018-11-06T19:53:06.344Z,68.42
2018-11-06T19:55:13.158Z,68.56
2018-11-06T19:57:18.530Z,68.25
2018-11-06T19:59:26.413Z,68.20
2018-11-06T20:01:36.932Z,67.79
2018-11-06T20:03:48.492Z,68.04
2018-11-06T20:05:54.329Z,68.24
2018-11-06T20:08:00.119Z,68.75
2018-11-06T20:10:08.187Z,68.60
2018-11-06T20:12:13.381Z,68.83
2018-11-06T20:14:19.548Z,68.34
2018-11-06T20:16:25.005Z,68.86
2018-11-06T20:18:32.221Z,68.96
2018-11-06T20:20:38.973Z,68.69
2018-11-06T20:22:45.244Z,68.92
2018-11-06T20:24:54.958Z,68.97
2018-11-06T20:32:25.901Z,68.78
2018-11-06T20:34:40.332Z,68.88
2018-11-06T20:36:59.817Z,69.14
2018-11-06T20:39:12.592Z,69.15
2018-11-06T20:41:36.219Z,69.30
2018-11-06T20:43:53.530Z,69.35
2018-11-06T20:46:07.802Z,69.06
2018-11-06T20:50:58.839Z,68.86
2018-11-06T20:53:28.714Z,69.04
2018-11-06T20:55:43.731Z,69.09
2018-11-06T20:57:58.262Z,69.39
2018-11-06T21:00:45.834Z,69.26
2018-11-06T21:02:54.351Z,69.18
2018-11-06T21:05:03.106Z,69.38
2018-11-06T21:13:21.251Z,68.80
2018-11-06T21:18:24.473Z,68.90
2018-11-06T21:20:46.215Z,69.04
2018-11-06T21:25:45.201Z,69.21
2018-11-06T21:30:13.494Z,69.51
2018-11-06T21:32:20.322Z,69.49
2018-11-06T21:34:26.811Z,69.75
2018-11-06T21:36:36.139Z,69.39
2018-11-06T21:38:46.221Z,69.55
2018-11-06T21:40:52.486Z,69.84
2018-11-06T21:42:58.713Z,69.69
2018-11-06T21:45:06.386Z,69.71
2018-11-06T21:47:13.992Z,69.56
2018-11-06T21:49:22.072Z,69.81
2018-11-06T21:51:33.424Z,69.70
2018-11-06T21:56:08.983Z,69.83
2018-11-06T21:58:14.485Z,69.97
2018-11-06T22:00:24.435Z,70.12
2018-11-06T22:02:30.517Z,70.22
2018-11-06T22:04:35.593Z,70.17
2018-11-06T22:06:41.001Z,70.22
2018-11-06T22:08:46.237Z,69.66
2018-11-06T22:10:52.456Z,70.04
2018-11-06T22:12:57.716Z,70.38
2018-11-06T22:15:03.219Z,70.42
2018-11-06T22:17:09.356Z,70.66
2018-11-06T22:19:15.363Z,71.04
2018-11-06T22:21:21.411Z,71.13
2018-11-06T22:23:29.665Z,71.14
2018-11-06T22:25:35.832Z,71.40
2018-11-06T22:27:49.955Z,71.38
2018-11-06T22:29:54.975Z,71.59
2018-11-06T22:32:01.094Z,71.92
2018-11-06T22:34:06.381Z,72.05
2018-11-06T22:36:12.304Z,72.17
2018-11-06T22:38:17.731Z,72.10
2018-11-06T22:40:23.996Z,72.22
2018-11-06T22:42:28.880Z,72.34
2018-11-06T22:44:33.806Z,72.37
2018-11-06T22:46:38.913Z,72.39
2018-11-06T22:48:43.898Z,72.44
2018-11-06T22:50:48.945Z,72.79
2018-11-06T22:52:53.924Z,72.72
2018-11-06T22:55:01.567Z,72.84
2018-11-06T22:57:10.795Z,72.20
2018-11-06T22:59:26.317Z,71.95
2018-11-06T23:01:33.419Z,72.36
2018-11-06T23:03:39.354Z,72.31
2018-11-06T23:05:45.978Z,72.48
2018-11-06T23:07:57.506Z,72.72
2018-11-06T23:10:02.575Z,72.41
2018-11-06T23:12:07.801Z,72.07
2018-11-06T23:14:12.781Z,71.83
2018-11-06T23:16:17.539Z,71.92
2018-11-06T23:18:22.430Z,72.04
2018-11-06T23:20:27.204Z,72.24
2018-11-06T23:22:32.397Z,72.51
2018-11-06T23:24:37.898Z,72.50
2018-11-06T23:26:42.739Z,72.68
2018-11-06T23:28:47.604Z,72.87
2018-11-06T23:30:52.525Z,73.01
2018-11-06T23:32:57.340Z,73.30
2018-11-06T23:35:02.149Z,73.64
2018-11-06T23:37:07.066Z,73.84
2018-11-06T23:39:11.847Z,73.97
2018-11-06T23:41:16.764Z,74.10
2018-11-06T23:43:21.583Z,74.17
2018-11-06T23:45:26.375Z,73.91
2018-11-06T23:47:31.274Z,74.15
2018-11-06T23:49:36.133Z,74.39
2018-11-06T23:51:40.865Z,74.29
2018-11-06T23:53:45.685Z,74.45
2018-11-06T23:55:51.386Z,73.76
2018-11-06T23:57:56.085Z,73.63
